Time;durP1;ratioP1;P1;durP2;ratioP2;P2;SDS_P1;SDS_P2;PMS_P1;PMS_P2;Temp;Humidity;BMP_temperature;BMP_pressure;BME280_temperature;BME280_humidity;BME280_pressure;Samples;Min_cycle;Max_cycle;Signal;HPM_P1;HPM_P2
2023/07/10 00:00:33;;;;;;;7.45;2.22;;;;;;;21.77;63.09;99498.20;1766604;81;21338;-80
2023/07/10 00:03:40;;;;;;;6.67;2.47;;;;;;;21.49;63.97;99498.02;1765545;81;21334;-80
2023/07/10 00:06:46;;;;;;;9.20;3.00;;;;;;;21.43;64.30;99496.31;1766774;81;21299;-80
2023/07/10 00:09:52;;;;;;;7.70;2.33;;;;;;;21.59;63.70;99493.07;1766587;80;21318;-80
2023/07/10 00:13:02;;;;;;;6.85;2.83;;;;;;;21.41;64.21;99494.36;1747740;82;21323;-80
2023/07/10 00:16:09;;;;;;;6.78;2.62;;;;;;;21.56;63.84;99490.29;1728797;83;21345;-80
2023/07/10 00:19:19;;;;;;;4.65;2.50;;;;;;;21.55;63.80;99498.36;1728792;83;21313;-80
2023/07/10 00:22:25;;;;;;;4.50;2.40;;;;;;;21.52;63.86;99498.88;1727386;83;21339;-80
2023/07/10 00:25:31;;;;;;;3.67;2.40;;;;;;;21.60;63.80;99496.16;1727337;82;21903;-80
2023/07/10 00:28:37;;;;;;;5.40;2.77;;;;;;;21.18;64.91;99494.98;1728734;83;21313;-80
2023/07/10 00:31:45;;;;;;;4.75;2.27;;;;;;;21.26;64.79;99486.69;1728051;83;21323;-80
2023/07/10 00:34:51;;;;;;;5.60;2.62;;;;;;;20.74;65.85;99479.01;1729174;83;21315;-80
2023/07/10 00:38:02;;;;;;;14.35;2.47;;;;;;;20.88;65.83;99487.76;1728904;83;21300;-80
2023/07/10 00:41:07;;;;;;;6.50;2.70;;;;;;;20.67;66.63;99486.73;1727986;83;21352;-80
2023/07/10 00:44:13;;;;;;;7.05;2.45;;;;;;;20.82;66.41;99487.43;1727822;83;21347;-80
2023/07/10 00:47:42;;;;;;;4.12;2.75;;;;;;;20.98;65.82;99492.02;1728943;83;21327;-80
2023/07/10 00:50:49;;;;;;;7.67;2.30;;;;;;;21.06;65.36;99478.19;1720752;83;21364;-80
2023/07/10 00:53:48;;;;;;;18.60;2.75;;;;;;;21.31;64.45;99490.92;1734248;83;21320;-80
2023/07/10 00:56:47;;;;;;;5.33;2.77;;;;;;;21.39;64.04;99491.83;1714655;83;21322;-80
2023/07/10 00:59:52;;;;;;;8.53;3.10;;;;;;;21.32;64.27;99489.02;1704070;84;21357;-80
2023/07/10 01:02:59;;;;;;;7.83;2.75;;;;;;;21.18;64.46;99488.04;1703182;84;21226;-80
2023/07/10 01:06:07;;;;;;;3.80;2.60;;;;;;;20.95;65.04;99487.00;1703230;84;21325;-80
2023/07/10 01:09:07;;;;;;;7.50;2.45;;;;;;;20.67;66.33;99479.23;1704696;84;21884;-80
2023/07/10 01:12:14;;;;;;;11.53;2.75;;;;;;;20.72;66.10;99484.56;1681158;84;21889;-80
2023/07/10 01:15:20;;;;;;;7.92;2.52;;;;;;;20.70;66.06;99479.80;1702409;84;21339;-81
2023/07/10 01:18:27;;;;;;;10.68;3.02;;;;;;;20.20;67.59;99491.46;1703105;84;21324;-81
2023/07/10 01:21:37;;;;;;;8.55;2.92;;;;;;;20.13;68.03;99481.09;1702858;84;22018;-80
2023/07/10 01:24:44;;;;;;;5.62;2.92;;;;;;;20.19;67.95;99487.02;1703239;84;21339;-80
2023/07/10 01:27:51;;;;;;;8.10;2.70;;;;;;;20.28;67.65;99494.31;1704376;83;21859;-81
2023/07/10 01:30:59;;;;;;;13.88;2.87;;;;;;;20.46;66.94;99485.63;1703757;84;21353;-80
2023/07/10 01:34:07;;;;;;;10.93;3.22;;;;;;;20.32;67.38;99481.59;1704683;84;21880;-80
2023/07/10 01:37:13;;;;;;;9.73;3.08;;;;;;;20.45;67.05;99478.96;1703301;84;22575;-80
2023/07/10 01:40:22;;;;;;;8.08;2.90;;;;;;;20.40;67.03;99481.97;1704636;84;21646;-81
2023/07/10 01:43:27;;;;;;;5.08;2.90;;;;;;;20.26;67.33;99485.41;1703795;84;21372;-80
2023/07/10 01:46:34;;;;;;;12.28;3.22;;;;;;;20.13;67.77;99481.92;1704271;84;22012;-81
2023/07/10 01:49:50;;;;;;;9.80;3.25;;;;;;;20.10;67.81;99483.02;1704550;84;21326;-81
2023/07/10 01:52:56;;;;;;;7.65;3.30;;;;;;;20.07;67.95;99492.68;1703772;84;21348;-81
2023/07/10 01:56:03;;;;;;;7.67;3.10;;;;;;;20.31;67.11;99484.08;1705795;83;21329;-81
2023/07/10 01:59:08;;;;;;;10.13;3.08;;;;;;;20.15;67.34;99490.02;1733729;83;21315;-81
2023/07/10 02:02:13;;;;;;;7.50;3.40;;;;;;;20.35;66.89;99488.86;1733521;83;21300;-81
2023/07/10 02:05:19;;;;;;;4.35;2.83;;;;;;;20.25;67.17;99497.63;1733836;83;21308;-81
2023/07/10 02:08:25;;;;;;;4.67;3.17;;;;;;;20.27;67.14;99499.58;1733780;83;21886;-81
2023/07/10 02:11:30;;;;;;;7.33;3.60;;;;;;;20.41;67.09;99502.24;1734296;83;21308;-81
2023/07/10 02:14:35;;;;;;;5.80;2.95;;;;;;;20.39;67.16;99507.23;1733796;82;21308;-81
2023/07/10 02:17:42;;;;;;;11.63;3.37;;;;;;;20.51;66.80;99506.55;1733764;83;21315;-81
2023/07/10 02:20:50;;;;;;;8.15;3.47;;;;;;;20.59;66.42;99513.04;1733900;83;21311;-81
2023/07/10 02:23:56;;;;;;;6.40;2.83;;;;;;;20.55;65.92;99524.94;1732728;83;21352;-82
2023/07/10 02:27:04;;;;;;;6.72;2.47;;;;;;;20.45;66.14;99513.68;1731599;83;21865;-81
2023/07/10 02:30:12;;;;;;;6.67;3.22;;;;;;;20.58;65.43;99516.92;1726763;83;21330;-81
2023/07/10 02:33:19;;;;;;;8.10;2.77;;;;;;;20.40;65.87;99518.63;1726153;83;21946;-81
2023/07/10 02:36:24;;;;;;;8.60;3.40;;;;;;;20.50;65.86;99531.27;1726757;83;21331;-81
2023/07/10 02:39:29;;;;;;;8.30;3.00;;;;;;;20.36;66.18;99537.73;1726885;83;21886;-82
2023/07/10 02:42:36;;;;;;;7.45;3.12;;;;;;;20.26;66.49;99534.84;1726608;83;21917;-81
2023/07/10 02:45:44;;;;;;;6.03;3.40;;;;;;;20.34;66.33;99537.72;1726944;83;21887;-81
2023/07/10 02:48:49;;;;;;;7.83;3.25;;;;;;;20.27;66.44;99539.29;1726844;83;21938;-81
2023/07/10 02:51:56;;;;;;;5.30;2.92;;;;;;;20.26;66.51;99540.95;1728398;82;21339;-81
2023/07/10 02:55:01;;;;;;;12.03;3.72;;;;;;;20.31;66.39;99534.91;1735890;82;21645;-81
2023/07/10 02:58:09;;;;;;;6.97;3.50;;;;;;;20.11;67.07;99541.59;1736931;82;21283;-81
2023/07/10 03:01:14;;;;;;;5.00;3.37;;;;;;;20.13;67.29;99544.94;1737501;81;21340;-81
2023/07/10 03:04:20;;;;;;;10.00;3.62;;;;;;;19.90;68.24;99535.77;1736833;82;21347;-81
2023/07/10 03:07:27;;;;;;;5.58;3.45;;;;;;;19.98;68.30;99540.02;1736427;82;21319;-81
2023/07/10 03:10:34;;;;;;;14.20;3.92;;;;;;;20.27;67.78;99539.29;1736488;82;21335;-81
2023/07/10 03:13:40;;;;;;;7.65;3.33;;;;;;;20.45;67.32;99542.29;1736352;82;21866;-81
2023/07/10 03:16:46;;;;;;;8.40;3.87;;;;;;;20.81;66.03;99539.41;1737253;81;21339;-81
2023/07/10 03:19:54;;;;;;;9.30;4.30;;;;;;;21.11;64.87;99536.63;1713886;82;21315;-81
2023/07/10 03:23:00;;;;;;;10.60;4.08;;;;;;;21.19;64.22;99550.05;1737675;82;21312;-81
2023/07/10 03:26:06;;;;;;;12.73;3.70;;;;;;;21.30;64.43;99551.80;1737762;82;21547;-80
2023/07/10 03:29:15;;;;;;;11.00;3.65;;;;;;;21.80;62.68;99551.11;1737610;82;21343;-81
2023/07/10 03:32:21;;;;;;;10.23;3.40;;;;;;;22.19;61.45;99546.06;1738674;81;21339;-81
2023/07/10 03:35:27;;;;;;;6.90;3.83;;;;;;;22.44;60.32;99550.38;1737622;82;21862;-81
2023/07/10 03:38:33;;;;;;;13.80;3.47;;;;;;;22.66;59.29;99552.10;1737768;82;21311;-81
2023/07/10 03:41:40;;;;;;;8.10;3.92;;;;;;;23.01;58.55;99544.42;1737621;82;21316;-81
2023/07/10 03:44:46;;;;;;;5.58;3.83;;;;;;;23.42;57.17;99555.59;1736696;82;21347;-81
2023/07/10 03:47:53;;;;;;;6.90;4.00;;;;;;;23.68;55.82;99553.10;1736795;81;21673;-81
2023/07/10 03:51:00;;;;;;;7.12;3.50;;;;;;;23.90;55.44;99554.73;1736227;82;21312;-81
2023/07/10 03:54:07;;;;;;;5.80;3.90;;;;;;;24.09;54.66;99554.42;1737144;82;21343;-81
2023/07/10 03:57:14;;;;;;;10.75;4.28;;;;;;;24.03;54.28;99561.13;1739538;82;21312;-81
2023/07/10 04:00:21;;;;;;;8.30;4.47;;;;;;;24.19;54.06;99556.35;1739238;82;21349;-81
2023/07/10 04:03:32;;;;;;;13.40;4.80;;;;;;;24.35;53.88;99548.73;1738078;82;21339;-80
2023/07/10 04:06:37;;;;;;;13.65;4.90;;;;;;;24.40;52.78;99555.73;1739494;82;21660;-80
2023/07/10 04:09:43;;;;;;;8.05;4.85;;;;;;;24.37;52.71;99553.50;1738205;82;21245;-80
2023/07/10 04:12:50;;;;;;;7.30;4.47;;;;;;;24.51;52.19;99562.11;1733747;82;21175;-80
2023/07/10 04:16:24;;;;;;;6.65;3.92;;;;;;;24.23;53.07;99563.88;1709691;84;21923;-80
2023/07/10 04:19:30;;;;;;;10.03;4.80;;;;;;;23.97;54.29;99561.70;1710057;84;21328;-81
2023/07/10 04:22:35;;;;;;;13.13;4.95;;;;;;;24.23;53.11;99558.30;1708644;83;21353;-81
2023/07/10 04:25:41;;;;;;;7.28;4.00;;;;;;;24.30;52.70;99564.13;1707977;84;21375;-80
2023/07/10 04:28:48;;;;;;;9.00;3.25;;;;;;;24.23;52.77;99561.09;1682591;84;21334;-80
2023/07/10 04:31:54;;;;;;;6.90;3.67;;;;;;;24.16;53.41;99566.13;1697429;84;21314;-80
2023/07/10 04:35:00;;;;;;;6.97;3.45;;;;;;;24.26;53.25;99564.42;1697106;84;21323;-80
2023/07/10 04:38:07;;;;;;;21.35;4.75;;;;;;;24.39;52.14;99561.05;1697444;84;21338;-80
2023/07/10 04:41:14;;;;;;;10.55;4.33;;;;;;;24.36;51.71;99562.98;1696490;84;21346;-81
2023/07/10 04:44:20;;;;;;;7.60;3.90;;;;;;;24.40;51.70;99569.71;1723686;82;21356;-81
2023/07/10 04:47:26;;;;;;;8.28;4.42;;;;;;;24.43;51.39;99564.39;1739439;82;21340;-81
2023/07/10 04:50:32;;;;;;;7.53;4.50;;;;;;;24.28;52.26;99558.84;1739595;82;21351;-81
2023/07/10 04:53:39;;;;;;;8.98;4.58;;;;;;;24.33;52.34;99556.02;1738849;82;21348;-81
2023/07/10 04:56:46;;;;;;;11.38;4.65;;;;;;;24.52;52.24;99557.66;1739510;82;21311;-81
2023/07/10 04:59:53;;;;;;;11.28;5.30;;;;;;;24.55;52.01;99558.45;1714630;82;21917;-81
2023/07/10 05:03:00;;;;;;;18.70;5.12;;;;;;;24.72;51.98;99560.34;1709345;84;21347;-81
2023/07/10 05:06:05;;;;;;;9.48;4.92;;;;;;;24.82;51.95;99561.41;1708646;84;21980;-81
2023/07/10 05:09:11;;;;;;;10.88;5.05;;;;;;;24.96;51.99;99563.84;1710005;84;21303;-81
2023/07/10 05:12:16;;;;;;;11.63;5.10;;;;;;;24.83;52.51;99556.91;1709995;84;21351;-81
2023/07/10 05:15:23;;;;;;;9.88;4.70;;;;;;;25.28;51.27;99559.17;1709553;83;21313;-81
2023/07/10 05:18:29;;;;;;;10.08;4.33;;;;;;;25.51;50.44;99565.16;1708683;84;21332;-81
2023/07/10 05:21:35;;;;;;;7.87;3.87;;;;;;;25.49;50.95;99561.23;1708569;84;21317;-81
2023/07/10 05:24:41;;;;;;;10.38;3.72;;;;;;;25.55;50.77;99560.08;1709833;84;21337;-81
2023/07/10 05:27:47;;;;;;;8.90;4.47;;;;;;;25.64;50.18;99559.72;1710026;84;21350;-80
2023/07/10 05:30:54;;;;;;;7.25;3.80;;;;;;;25.63;50.28;99559.42;1710118;84;21383;-80
2023/07/10 05:34:01;;;;;;;9.43;3.70;;;;;;;25.68;50.27;99560.77;1683780;85;21881;-81
2023/07/10 05:37:07;;;;;;;11.50;3.17;;;;;;;25.63;50.51;99553.83;1710766;84;21307;-80
2023/07/10 05:40:13;;;;;;;6.60;3.50;;;;;;;25.85;50.98;99550.58;1697390;84;21889;-80
2023/07/10 05:43:20;;;;;;;10.30;3.27;;;;;;;25.70;50.97;99562.73;1683699;85;21877;-81
2023/07/10 05:46:26;;;;;;;5.33;3.27;;;;;;;25.64;50.35;99562.52;1710725;84;21937;-80
2023/07/10 05:49:33;;;;;;;17.67;2.95;;;;;;;25.90;49.26;99562.30;1696105;84;21332;-80
2023/07/10 05:52:39;;;;;;;8.88;3.45;;;;;;;26.04;49.25;99560.46;1683420;85;21331;-80
2023/07/10 05:55:44;;;;;;;7.00;3.05;;;;;;;26.16;48.96;99562.30;1711343;83;21354;-81
2023/07/10 05:58:52;;;;;;;5.90;2.70;;;;;;;26.22;48.32;99563.91;1699114;83;22795;-80
2023/07/10 06:01:58;;;;;;;4.58;2.45;;;;;;;26.36;48.92;99561.80;1713818;83;21378;-80
2023/07/10 06:05:05;;;;;;;8.48;2.72;;;;;;;26.33;48.73;99563.20;1718709;83;21331;-81
2023/07/10 06:08:10;;;;;;;8.03;2.92;;;;;;;26.53;47.13;99565.52;1718911;83;21312;-80
2023/07/10 06:11:16;;;;;;;5.35;2.70;;;;;;;26.74;46.50;99570.58;1718523;83;21304;-80
2023/07/10 06:14:21;;;;;;;6.17;2.45;;;;;;;26.72;46.37;99564.45;1704210;83;21948;-80
2023/07/10 06:17:29;;;;;;;6.37;2.17;;;;;;;26.74;46.32;99567.77;1698258;84;21326;-81
2023/07/10 06:20:34;;;;;;;7.80;2.33;;;;;;;27.05;46.52;99563.11;1699157;84;21353;-81
2023/07/10 06:23:40;;;;;;;12.63;1.90;;;;;;;27.03;45.58;99572.41;1699142;84;21869;-81
2023/07/10 06:26:47;;;;;;;2.83;2.00;;;;;;;27.11;45.59;99556.91;1698416;84;21943;-82
2023/07/10 06:29:54;;;;;;;8.58;2.33;;;;;;;27.21;45.29;99561.78;1714151;83;21224;-82
2023/07/10 06:33:00;;;;;;;3.58;2.10;;;;;;;27.26;44.19;99563.68;1698540;84;21370;-82
2023/07/10 06:36:09;;;;;;;4.05;2.15;;;;;;;27.13;44.14;99563.87;1709190;84;21326;-82
2023/07/10 06:39:17;;;;;;;2.90;2.10;;;;;;;27.18;44.27;99559.58;1709431;84;21335;-81
2023/07/10 06:42:23;;;;;;;3.77;2.27;;;;;;;27.26;44.42;99561.70;1709279;84;21869;-81
2023/07/10 06:45:30;;;;;;;6.00;2.10;;;;;;;26.87;46.39;99560.59;1701375;84;21413;-81
2023/07/10 06:48:39;;;;;;;4.25;1.95;;;;;;;27.40;44.10;99555.31;1696105;84;21314;-81
2023/07/10 06:51:44;;;;;;;7.85;2.45;;;;;;;27.36;43.10;99549.47;1696283;84;21314;-81
2023/07/10 06:54:50;;;;;;;3.52;1.65;;;;;;;27.37;44.07;99551.70;1697433;84;21314;-81
2023/07/10 06:57:56;;;;;;;2.83;1.55;;;;;;;27.47;43.24;99551.53;1696474;84;21344;-81
2023/07/10 07:01:02;;;;;;;3.67;1.80;;;;;;;27.58;41.88;99553.05;1696442;83;21368;-80
2023/07/10 07:04:09;;;;;;;3.35;1.82;;;;;;;27.41;42.37;99546.58;1692356;85;21341;-81
2023/07/10 07:07:15;;;;;;;3.60;1.80;;;;;;;27.39;42.64;99560.67;1722601;82;21344;-81
2023/07/10 07:10:35;;;;;;;5.75;1.65;;;;;;;27.56;41.79;99546.88;1739356;82;21295;-81
2023/07/10 07:13:41;;;;;;;3.58;1.87;;;;;;;27.70;41.33;99540.73;1731239;82;21890;-81
2023/07/10 07:16:47;;;;;;;3.83;1.90;;;;;;;27.79;42.04;99541.47;1731610;82;21374;-81
2023/07/10 07:19:53;;;;;;;2.90;1.90;;;;;;;27.86;42.22;99541.34;1713171;83;21320;-81
2023/07/10 07:22:59;;;;;;;3.20;1.77;;;;;;;27.80;41.58;99548.75;1711528;83;21307;-81
2023/07/10 07:26:06;;;;;;;4.65;1.75;;;;;;;27.93;41.77;99536.70;1716219;83;21315;-81
2023/07/10 07:29:10;;;;;;;4.60;1.32;;;;;;;27.74;41.29;99536.20;1692322;85;21310;-81
2023/07/10 07:32:18;;;;;;;3.55;1.40;;;;;;;27.79;41.65;99528.83;1703281;84;21326;-80
2023/07/10 07:35:24;;;;;;;9.03;1.67;;;;;;;27.80;40.79;99531.31;1690991;85;21311;-80
2023/07/10 07:38:29;;;;;;;3.75;1.80;;;;;;;27.91;40.78;99530.00;1698463;83;21335;-82
2023/07/10 07:41:28;;;;;;;5.67;1.42;;;;;;;27.97;39.97;99535.78;1720925;83;21332;-82
2023/07/10 07:44:21;;;;;;;2.83;1.40;;;;;;;28.00;39.33;99539.38;1711279;83;21344;-82
2023/07/10 07:47:28;;;;;;;2.17;1.20;;;;;;;28.05;39.04;99544.65;1729974;82;21373;-82
2023/07/10 07:50:34;;;;;;;4.12;1.37;;;;;;;28.16;38.56;99539.08;1683606;84;21914;-80
2023/07/10 07:53:45;;;;;;;5.08;1.82;;;;;;;28.31;39.02;99533.13;1700793;83;21328;-80
2023/07/10 07:56:51;;;;;;;3.05;1.30;;;;;;;28.48;39.37;99523.53;1725487;82;21917;-80
2023/07/10 07:59:59;;;;;;;9.80;1.72;;;;;;;28.31;36.80;99529.49;1754044;81;21280;-80
2023/07/10 08:03:08;;;;;;;6.70;1.07;;;;;;;28.27;37.46;99526.47;1715003;82;21173;-80
2023/07/10 08:06:15;;;;;;;2.67;1.17;;;;;;;28.64;37.60;99523.19;1755641;79;21300;-80
2023/07/10 08:09:20;;;;;;;3.22;1.22;;;;;;;28.19;37.82;99539.87;1729160;81;21914;-80
2023/07/10 08:12:19;;;;;;;6.05;1.45;;;;;;;28.22;37.27;99530.79;1767081;79;21874;-80
2023/07/10 08:15:13;;;;;;;2.98;1.10;;;;;;;28.03;38.04;99531.72;1758632;79;21272;-80
2023/07/10 08:17:59;;;;;;;2.87;1.75;;;;;;;28.27;36.63;99525.89;1744482;79;21937;-80
2023/07/10 08:20:51;;;;;;;1.92;1.15;;;;;;;28.32;36.15;99526.94;1768705;79;21843;-80
2023/07/10 08:23:58;;;;;;;4.83;1.27;;;;;;;28.14;37.65;99532.94;1748917;79;21305;-80
2023/07/10 08:27:04;;;;;;;4.50;1.62;;;;;;;28.15;38.26;99518.56;1757082;79;21607;-80
2023/07/10 08:30:11;;;;;;;7.78;1.98;;;;;;;28.47;37.15;99530.89;1701237;81;21299;-80
2023/07/10 08:33:17;;;;;;;4.75;1.87;;;;;;;28.64;35.32;99521.20;1697072;82;21181;-80
2023/07/10 08:36:24;;;;;;;2.87;1.72;;;;;;;28.77;34.69;99520.35;1761913;79;21284;-80
2023/07/10 08:39:24;;;;;;;7.83;1.95;;;;;;;28.44;35.58;99523.06;1755238;79;21295;-80
2023/07/10 08:42:32;;;;;;;6.22;1.98;;;;;;;28.63;35.10;99529.39;1769807;81;21272;-80
2023/07/10 08:45:43;;;;;;;2.98;2.02;;;;;;;28.61;35.63;99514.83;1762573;79;21620;-80
2023/07/10 08:49:06;;;;;;;3.90;2.08;;;;;;;28.46;35.91;99524.98;1749171;79;21341;-80
2023/07/10 08:52:21;;;;;;;12.70;2.10;;;;;;;28.67;34.61;99510.73;1705705;82;21849;-80
2023/07/10 08:55:34;;;;;;;10.25;2.98;;;;;;;28.97;35.32;99517.66;1764800;79;21291;-80
2023/07/10 08:58:44;;;;;;;6.15;2.22;;;;;;;29.10;36.42;99511.73;1752043;80;21330;-80
2023/07/10 09:01:52;;;;;;;6.28;2.08;;;;;;;29.02;36.48;99515.30;1756530;80;21325;-80
2023/07/10 09:05:00;;;;;;;3.80;1.85;;;;;;;29.22;35.36;99522.45;1760077;80;21835;-80
2023/07/10 09:08:10;;;;;;;5.58;2.42;;;;;;;29.53;34.34;99511.22;1718047;82;21283;-80
2023/07/10 09:11:17;;;;;;;2.75;1.85;;;;;;;29.22;35.40;99512.02;1708095;83;21174;-80
2023/07/10 09:14:51;;;;;;;2.50;1.70;;;;;;;29.20;35.50;99505.02;1721854;82;21286;-80
2023/07/10 09:18:14;;;;;;;6.15;1.90;;;;;;;29.02;35.50;99506.86;1705354;83;21322;-80
2023/07/10 09:21:27;;;;;;;4.72;1.45;;;;;;;29.64;35.03;99511.81;1716070;83;21327;-80
2023/07/10 09:24:32;;;;;;;13.03;1.57;;;;;;;29.51;35.49;99507.91;1733233;82;21302;-81
2023/07/10 09:27:40;;;;;;;3.60;1.82;;;;;;;29.32;33.70;99517.14;1714574;82;21271;-81
2023/07/10 09:31:16;;;;;;;3.42;1.62;;;;;;;28.76;35.40;99513.64;1741856;82;21294;-81
2023/07/10 09:34:22;;;;;;;7.35;2.25;;;;;;;29.13;35.28;99504.65;1725311;83;22005;-81
2023/07/10 09:37:31;;;;;;;2.17;1.70;;;;;;;29.23;34.98;99518.47;1690487;83;21292;-81
2023/07/10 09:40:57;;;;;;;6.95;1.52;;;;;;;29.37;34.60;99512.78;1693546;84;21307;-80
2023/07/10 09:44:24;;;;;;;2.72;1.70;;;;;;;29.48;34.96;99514.17;1694610;84;21888;-80
2023/07/10 09:47:30;;;;;;;4.10;1.70;;;;;;;29.68;35.33;99505.20;1715126;81;21303;-80
2023/07/10 09:50:36;;;;;;;3.35;1.60;;;;;;;29.54;34.79;99509.52;1714607;81;21348;-80
2023/07/10 09:53:49;;;;;;;3.20;1.55;;;;;;;30.00;33.79;99508.86;1694699;83;21853;-80
2023/07/10 09:56:55;;;;;;;10.72;2.22;;;;;;;29.96;34.44;99488.11;1743546;82;21937;-80
2023/07/10 10:00:04;;;;;;;6.97;1.90;;;;;;;30.07;33.21;99509.23;1711730;81;21340;-80
2023/07/10 10:03:11;;;;;;;6.37;1.82;;;;;;;30.01;33.70;99505.70;1694351;84;21283;-81
2023/07/10 10:06:39;;;;;;;6.25;1.70;;;;;;;29.58;33.75;99511.70;1712892;84;21272;-80
2023/07/10 10:09:45;;;;;;;9.85;2.30;;;;;;;29.63;33.94;99496.89;1712849;83;21360;-81
2023/07/10 10:12:51;;;;;;;3.33;1.60;;;;;;;29.69;34.38;99503.22;1728267;82;21150;-80
2023/07/10 10:16:06;;;;;;;3.72;1.67;;;;;;;29.49;34.45;99498.93;1725855;81;21094;-80
2023/07/10 10:19:31;;;;;;;8.00;1.77;;;;;;;29.74;33.90;99501.12;1720088;81;21356;-80
2023/07/10 10:22:39;;;;;;;2.85;1.50;;;;;;;29.44;33.94;99501.88;1703611;82;21904;-81
2023/07/10 10:25:48;;;;;;;6.45;1.90;;;;;;;29.21;34.21;99510.91;1734558;82;21867;-81
2023/07/10 10:29:18;;;;;;;4.47;1.87;;;;;;;29.39;33.84;99502.02;1730682;82;21302;-81
2023/07/10 10:32:41;;;;;;;2.15;1.37;;;;;;;29.65;34.70;99497.42;1720256;83;21344;-82
2023/07/10 10:36:02;;;;;;;3.90;1.50;;;;;;;29.67;34.26;99481.59;1696862;83;21667;-81
2023/07/10 10:39:20;;;;;;;2.20;1.60;;;;;;;29.87;34.20;99495.11;1728674;83;21307;-81
2023/07/10 10:42:42;;;;;;;6.20;1.40;;;;;;;30.02;32.65;99500.92;1730995;83;22549;-80
2023/07/10 10:45:52;;;;;;;2.62;1.37;;;;;;;30.00;32.76;99508.86;1726280;82;21354;-80
2023/07/10 10:49:37;;;;;;;4.67;1.25;;;;;;;30.10;33.52;99498.70;1696319;82;21831;-81
2023/07/10 10:53:05;;;;;;;5.40;1.60;;;;;;;30.24;32.21;99502.27;1690957;85;21342;-80
2023/07/10 10:56:26;;;;;;;2.87;1.47;;;;;;;30.18;31.92;99510.63;1690928;85;21335;-80
2023/07/10 11:00:26;;;;;;;7.12;1.65;;;;;;;29.62;33.03;99501.45;1691835;85;21874;-80
2023/07/10 11:03:43;;;;;;;4.65;1.40;;;;;;;29.65;32.30;99514.33;1685621;85;21342;-80
2023/07/10 11:06:54;;;;;;;6.50;1.57;;;;;;;29.95;32.52;99507.59;1685762;85;21244;-80
2023/07/10 11:13:15;;;;;;;3.72;1.30;;;;;;;30.08;32.37;99514.30;1687354;85;21177;-80
2023/07/10 11:16:29;;;;;;;1.80;1.30;;;;;;;29.74;32.02;99510.98;1856478;76;22752;-81
2023/07/10 11:19:37;;;;;;;7.12;1.40;;;;;;;29.61;33.19;99504.84;1749663;82;21354;-81
2023/07/10 11:22:43;;;;;;;3.02;1.50;;;;;;;29.46;33.35;99494.78;1766556;81;21320;-80
2023/07/10 11:25:48;;;;;;;5.28;1.50;;;;;;;29.53;33.38;99512.63;1748935;82;21317;-81
2023/07/10 11:29:05;;;;;;;4.40;1.32;;;;;;;29.63;32.33;99515.20;1766847;81;21874;-81
2023/07/10 11:32:22;;;;;;;4.47;1.42;;;;;;;29.73;33.00;99493.80;1750335;82;21326;-81
2023/07/10 11:35:30;;;;;;;2.80;1.42;;;;;;;29.93;32.56;99507.10;1735807;82;21383;-80
2023/07/10 11:38:36;;;;;;;1.75;1.40;;;;;;;29.83;32.49;99510.17;1719293;83;21305;-81
2023/07/10 11:41:45;;;;;;;7.45;1.75;;;;;;;29.87;32.22;99509.20;1735125;82;21896;-81
2023/07/10 11:44:50;;;;;;;8.18;1.55;;;;;;;29.75;31.78;99521.09;1720447;83;21365;-80
2023/07/10 11:47:56;;;;;;;9.93;1.82;;;;;;;29.76;32.31;99504.43;1737124;82;21870;-81
2023/07/10 11:51:03;;;;;;;4.20;1.60;;;;;;;29.81;32.67;99509.68;1720640;83;21302;-81
2023/07/10 11:54:44;;;;;;;3.12;1.70;;;;;;;29.95;32.98;99508.42;1736531;82;21300;-81
2023/07/10 11:57:50;;;;;;;5.10;1.30;;;;;;;30.06;31.47;99513.19;1719347;83;21884;-81
2023/07/10 12:00:57;;;;;;;2.12;1.10;;;;;;;30.05;31.38;99514.35;1735561;82;21343;-80
2023/07/10 12:04:03;;;;;;;5.85;1.55;;;;;;;30.19;31.50;99507.23;1679777;83;21922;-80
2023/07/10 12:07:11;;;;;;;1.98;1.30;;;;;;;29.99;32.38;99509.44;1683687;83;21286;-80
2023/07/10 12:10:36;;;;;;;2.42;1.50;;;;;;;30.09;32.12;99517.36;1733316;82;21237;-80
2023/07/10 12:13:43;;;;;;;3.95;1.52;;;;;;;29.96;31.72;99524.17;1719448;83;21203;-80
2023/07/10 12:17:02;;;;;;;2.95;1.62;;;;;;;29.87;31.15;99518.23;1673031;85;21641;-80
2023/07/10 12:20:12;;;;;;;2.27;1.40;;;;;;;29.90;32.56;99513.37;1661603;85;21803;-80
2023/07/10 12:23:14;;;;;;;2.33;1.35;;;;;;;30.01;32.49;99500.06;1683740;85;21331;-80
2023/07/10 12:26:07;;;;;;;2.75;1.32;;;;;;;30.12;32.18;99522.36;1690139;85;21334;-80
2023/07/10 12:28:58;;;;;;;1.82;1.30;;;;;;;29.96;30.49;99502.20;1691040;85;21870;-80
2023/07/10 12:31:50;;;;;;;3.08;1.57;;;;;;;29.89;30.39;99514.54;1690677;85;21372;-80
2023/07/10 12:34:36;;;;;;;5.90;1.30;;;;;;;29.94;30.54;99511.58;1670891;85;21325;-80
2023/07/10 12:37:28;;;;;;;1.90;1.30;;;;;;;29.90;30.41;99510.55;1638735;86;21341;-80
2023/07/10 12:40:17;;;;;;;1.52;1.02;;;;;;;29.80;29.60;99506.03;1639026;86;21341;-80
2023/07/10 12:43:31;;;;;;;2.92;1.30;;;;;;;29.97;29.68;99523.05;1642188;86;21898;-80
2023/07/10 12:46:37;;;;;;;2.60;1.25;;;;;;;30.12;29.16;99516.14;1663836;86;21334;-80
2023/07/10 12:49:43;;;;;;;6.00;1.15;;;;;;;30.13;30.78;99527.70;1682787;85;21299;-80
2023/07/10 12:52:48;;;;;;;1.72;1.27;;;;;;;30.09;29.93;99521.01;1692483;85;21307;-80
2023/07/10 12:55:58;;;;;;;2.12;1.20;;;;;;;30.14;30.53;99513.84;1677091;85;21374;-80
2023/07/10 12:59:20;;;;;;;5.15;1.45;;;;;;;30.24;30.15;99509.31;1692422;85;21311;-81
2023/07/10 13:02:27;;;;;;;2.55;1.32;;;;;;;30.02;29.30;99522.90;1678981;85;21397;-80
2023/07/10 13:05:39;;;;;;;4.83;1.40;;;;;;;30.10;30.39;99509.98;1692399;85;21308;-81
2023/07/10 13:08:48;;;;;;;1.95;1.17;;;;;;;30.15;31.10;99499.98;1692005;85;21665;-80
2023/07/10 13:11:56;;;;;;;2.90;1.62;;;;;;;30.24;30.83;99505.66;1692733;85;21387;-80
2023/07/10 13:15:01;;;;;;;5.95;1.32;;;;;;;30.22;30.37;99506.00;1692552;85;21315;-80
2023/07/10 13:18:07;;;;;;;1.90;1.30;;;;;;;30.18;30.87;99512.04;1701423;84;21328;-79
2023/07/10 13:21:12;;;;;;;4.37;1.42;;;;;;;30.31;30.95;99496.75;1704682;84;21359;-80
2023/07/10 13:24:20;;;;;;;13.95;1.30;;;;;;;30.21;28.92;99511.40;1684108;85;21317;-79
2023/07/10 13:27:27;;;;;;;6.08;1.20;;;;;;;30.24;29.26;99490.98;1696008;84;21329;-79
2023/07/10 13:30:33;;;;;;;1.75;1.10;;;;;;;30.15;29.95;99501.40;1684166;85;21318;-79
2023/07/10 13:33:40;;;;;;;2.92;1.10;;;;;;;30.07;30.02;99495.14;1696864;84;21907;-80
2023/07/10 13:36:46;;;;;;;2.20;1.22;;;;;;;29.85;30.17;99492.38;1696534;84;22668;-80
2023/07/10 13:39:52;;;;;;;3.17;1.30;;;;;;;29.84;29.78;99492.96;1704534;84;21908;-80
2023/07/10 13:42:58;;;;;;;4.12;1.32;;;;;;;29.85;30.41;99505.06;1705392;84;21330;-80
2023/07/10 13:46:07;;;;;;;2.72;1.20;;;;;;;29.87;30.68;99488.06;1704498;84;21417;-80
2023/07/10 13:49:18;;;;;;;5.17;1.65;;;;;;;29.79;31.46;99484.06;1708460;83;21339;-80
2023/07/10 13:52:30;;;;;;;2.02;1.40;;;;;;;29.64;31.71;99497.72;1726536;83;21342;-80
2023/07/10 13:55:35;;;;;;;2.77;1.40;;;;;;;29.71;32.02;99486.25;1726838;83;21885;-80
2023/07/10 13:58:42;;;;;;;2.95;1.40;;;;;;;29.78;32.10;99484.38;1725613;83;21869;-80
2023/07/10 14:01:47;;;;;;;2.60;1.35;;;;;;;29.74;31.33;99494.08;1725483;83;21859;-80
2023/07/10 14:04:56;;;;;;;2.67;1.30;;;;;;;29.82;31.38;99494.42;1717148;83;21640;-80
2023/07/10 14:08:02;;;;;;;4.60;1.35;;;;;;;29.70;30.70;99496.45;1704004;84;21348;-80
2023/07/10 14:11:08;;;;;;;2.70;1.57;;;;;;;29.63;30.80;99489.84;1704462;84;21335;-80
2023/07/10 14:14:17;;;;;;;2.72;1.15;;;;;;;29.67;30.87;99498.49;1704863;84;21320;-80
2023/07/10 14:17:30;;;;;;;4.97;1.87;;;;;;;29.69;31.28;99506.03;1702442;84;21351;-80
2023/07/10 14:20:36;;;;;;;6.37;1.92;;;;;;;29.55;32.21;99510.38;1704850;83;21843;-80
2023/07/10 14:23:42;;;;;;;2.05;1.32;;;;;;;29.54;32.52;99507.24;1703813;84;21920;-80
2023/07/10 14:26:49;;;;;;;4.30;1.50;;;;;;;29.56;32.45;99512.61;1704788;84;21348;-80
2023/07/10 14:29:56;;;;;;;2.77;1.72;;;;;;;29.68;32.07;99507.20;1683454;84;21312;-80
2023/07/10 14:33:01;;;;;;;5.30;1.65;;;;;;;29.72;32.13;99506.23;1704707;84;21316;-80
2023/07/10 14:36:07;;;;;;;3.67;1.75;;;;;;;29.59;32.48;99518.41;1704814;83;21272;-80
2023/07/10 14:39:13;;;;;;;2.70;1.50;;;;;;;29.13;33.48;99508.88;1707315;84;21306;-80
2023/07/10 14:42:22;;;;;;;3.22;1.30;;;;;;;29.09;33.64;99511.48;1686148;84;21307;-80
2023/07/10 14:45:33;;;;;;;3.22;1.10;;;;;;;29.20;31.69;99503.03;1706453;83;21316;-79